Green Ray — D5EY2 — position and weather

sailwx.info

Track history (hours):
 
Tides and Currents Weather Stations Pressure Air Temp Water Temp Dewpoint Dewpoint Depression Visibility Wind Speed Wind Dir Waves Ship Positions

Green Ray

Last reported at 2017-Dec-23 21:29 UTC. Time now 2018-Jan-20 23:10 UTC.
Position N 36°25' E 014°41'.
Warning: this ship's position is 28 days out of date.

Length 145 m; draft 8.9 m.

Type: Ship (hazmat cat A). MMSI: 636016193.

Date/timePositionNaut miles runAvg speedWind from/ knotsBaromVisibWave heightAir tempDewpointWater temp
2017-Dec-23 21:29N 36°25' E 014°41'713.7
2017-Dec-23 21:00N 36°26' E 014°33'713.5
2017-Dec-23 20:30N 36°28' E 014°25'713.5
2017-Dec-23 19:59N 36°30' E 014°17'713.5
2017-Dec-23 19:30N 36°32' E 014°09'1113.7
2017-Dec-23 18:43N 36°35' E 013°56'1113.5
2017-Dec-23 17:53N 36°38' E 013°43'  
2017-Dec-20 18:45N 36°00' W 005°14'314.7
2017-Dec-20 18:30N 35°60' W 005°18'714.4
2017-Dec-20 18:00N 35°58' W 005°27'23811.2
2017-Dec-19 20:46N 37°42' W 009°54'913.2
2017-Dec-19 20:05N 37°51' W 009°57'113.4
2017-Dec-19 20:00N 37°52' W 009°57'713.7
2017-Dec-19 19:30N 37°59' W 009°59'913.5
2017-Dec-19 18:52N 38°07' W 010°02'513.4
2017-Dec-19 18:30N 38°12' W 010°03'913.3
2017-Dec-19 17:48N 38°21' W 010°06'413.3
2017-Dec-19 17:30N 38°25' W 010°07'713.3
2017-Dec-19 17:00N 38°31' W 010°09'713.5
2017-Dec-19 16:30N 38°38' W 010°11'713.5
2017-Dec-19 16:00N 38°45' W 010°12'1113.1
2017-Dec-19 15:10N 38°55' W 010°12'213.1
2017-Dec-19 15:00N 38°58' W 010°12'713.2
2017-Dec-19 14:30N 39°04' W 010°12'713.0
2017-Dec-19 13:58N 39°11' W 010°12'613.4
2017-Dec-19 13:29N 39°18' W 010°12'  
2017-Dec-17 06:25N 49°44' W 003°36'711.7
2017-Dec-17 05:47N 49°48' W 003°27'311.6
2017-Dec-17 05:30N 49°50' W 003°22'711.7
2017-Dec-17 04:55N 49°53' W 003°12'512.0
2017-Dec-17 04:30N 49°55' W 003°06'612.4
2017-Dec-17 04:00N 49°57' W 002°57'612.8
2017-Dec-17 03:30N 49°59' W 002°47'713.4
2017-Dec-17 03:00N 50°01' W 002°37'7012.5
2017-Dec-16 21:22N 49°53' W 000°49'411.6
2017-Dec-16 21:00N 49°50' W 000°44'611.4
2017-Dec-16 20:30N 49°46' W 000°38'611.3
2017-Dec-16 20:00N 49°42' W 000°32'611.4
2017-Dec-16 19:30N 49°38' W 000°26'611.3
2017-Dec-16 19:00N 49°34' W 000°19'611.4
2017-Dec-16 18:30N 49°32' W 000°11'611.6
2017-Dec-16 18:00N 49°30' W 000°03'611.1
2017-Dec-16 17:30N 49°29' E 000°06'3 6.3
2017-Dec-16 17:00N 49°29' E 000°10'0 0.0
2017-Dec-16 16:30N 49°29' E 000°10'1 1.4
2017-Dec-16 16:01N 49°29' E 000°11'2 3.3
2017-Dec-16 15:25N 49°28' E 000°14'0 0.0
2017-Dec-16 14:55N 49°28' E 000°14'0 0.0
2017-Dec-16 14:25N 49°28' E 000°14'0 0.0
2017-Dec-16 13:55N 49°28' E 000°14'0 0.0
2017-Dec-16 13:25N 49°28' E 000°14'0 0.0
2017-Dec-16 12:55N 49°28' E 000°14'0 0.0
2017-Dec-16 12:25N 49°28' E 000°14'0 0.0
2017-Dec-16 11:55N 49°28' E 000°14'0 0.0
2017-Dec-16 11:25N 49°28' E 000°14'0 0.0
2017-Dec-16 10:55N 49°28' E 000°14'0 0.0
2017-Dec-16 10:25N 49°28' E 000°14'0 0.0
2017-Dec-16 09:55N 49°28' E 000°14'0 0.0
2017-Dec-16 09:25N 49°28' E 000°14'0 0.0
2017-Dec-16 08:55N 49°28' E 000°14'0 0.0
2017-Dec-16 08:25N 49°28' E 000°14'0 0.0
2017-Dec-16 07:55N 49°28' E 000°14'0 0.0
2017-Dec-16 07:25N 49°28' E 000°14'0 0.0
2017-Dec-16 06:55N 49°28' E 000°14'0 0.0
2017-Dec-16 06:25N 49°28' E 000°14'0 0.0
2017-Dec-16 05:55N 49°28' E 000°14'0 0.0
2017-Dec-16 05:25N 49°28' E 000°14'0 0.0
2017-Dec-16 04:55N 49°28' E 000°14'0 0.0
2017-Dec-16 04:25N 49°28' E 000°14'0 0.0
2017-Dec-16 03:55N 49°28' E 000°14'0 0.0
2017-Dec-16 03:25N 49°28' E 000°14'0 0.0
2017-Dec-16 02:55N 49°28' E 000°14'0 0.0
2017-Dec-16 02:25N 49°28' E 000°14'0 0.0
2017-Dec-16 01:55N 49°28' E 000°14'0 0.0
2017-Dec-16 01:25N 49°28' E 000°14'0 0.0
2017-Dec-16 00:55N 49°28' E 000°14'0 0.0
2017-Dec-16 00:25N 49°28' E 000°14'0 0.0
2017-Dec-15 23:55N 49°28' E 000°14'0 0.0
2017-Dec-15 23:25N 49°28' E 000°14'0 0.0
2017-Dec-15 22:55N 49°28' E 000°14'0 0.0
2017-Dec-15 22:25N 49°28' E 000°14'0 0.0
2017-Dec-15 21:55N 49°28' E 000°14'0 0.0
2017-Dec-15 21:25N 49°28' E 000°14'0 0.0
2017-Dec-15 20:55N 49°28' E 000°14'0 0.0
2017-Dec-15 20:25N 49°28' E 000°14'0 0.0
2017-Dec-15 19:55N 49°28' E 000°14'0 0.0
2017-Dec-15 19:25N 49°28' E 000°14'0 0.0
2017-Dec-15 18:55N 49°28' E 000°14'0 0.0
2017-Dec-15 18:25N 49°28' E 000°14'0 0.0
2017-Dec-15 17:55N 49°28' E 000°14'0 0.0
2017-Dec-15 17:25N 49°28' E 000°14'0 0.0
2017-Dec-15 16:55N 49°28' E 000°14'0 0.0
2017-Dec-15 16:25N 49°28' E 000°14'0 0.0
2017-Dec-15 15:55N 49°28' E 000°14'0 0.0
2017-Dec-15 15:25N 49°28' E 000°14'0 0.0
2017-Dec-15 14:55N 49°28' E 000°14'0 0.0
2017-Dec-15 14:25N 49°28' E 000°14'0 0.0
2017-Dec-15 13:55N 49°28' E 000°14'0 0.0
2017-Dec-15 13:25N 49°28' E 000°14'0 0.0
2017-Dec-15 12:55N 49°28' E 000°14'0 0.0
2017-Dec-15 12:25N 49°28' E 000°14'0 0.0
2017-Dec-15 11:55N 49°28' E 000°14'0 0.0
2017-Dec-15 11:25N 49°28' E 000°14'0 0.0
2017-Dec-15 10:55N 49°28' E 000°14'0 0.0
2017-Dec-15 10:25N 49°28' E 000°14'0 0.0
2017-Dec-15 09:55N 49°28' E 000°14'0 0.0
2017-Dec-15 09:25N 49°28' E 000°14'0 0.0
2017-Dec-15 08:55N 49°28' E 000°14'0 0.0
2017-Dec-15 08:25N 49°28' E 000°14'0 0.0
2017-Dec-15 08:01N 49°28' E 000°14'0 0.0
2017-Dec-15 07:31N 49°28' E 000°14'0 0.0
2017-Dec-15 07:01N 49°28' E 000°14'0 0.0
2017-Dec-15 06:30N 49°28' E 000°14'0 0.0
2017-Dec-15 06:00N 49°28' E 000°14'0 0.0
2017-Dec-15 05:30N 49°28' E 000°14'0 0.0
2017-Dec-15 05:00N 49°28' E 000°14'0 0.0
2017-Dec-15 04:30N 49°28' E 000°14'0 0.0
2017-Dec-15 04:00N 49°28' E 000°14'3 2.0
2017-Dec-15 02:30N 49°28' E 000°10'14 9.4
2017-Dec-15 01:00N 49°32' W 000°11'5 9.3
2017-Dec-15 00:30N 49°33' W 000°18'52 8.7
2017-Dec-14 18:30N 50°26' W 000°13'5 9.9
2017-Dec-14 18:00N 50°27' W 000°05'5 9.8
2017-Dec-14 17:30N 50°28' E 000°02'510.4
2017-Dec-14 16:59N 50°29' E 000°10'510.7
2017-Dec-14 16:30N 50°31' E 000°18'611.3
2017-Dec-14 16:00N 50°32' E 000°27'1211.6
2017-Dec-14 15:00N 50°37' E 000°43'612.4
2017-Dec-14 14:30N 50°41' E 000°51'612.6
2017-Dec-14 14:00N 50°44' E 000°59'1311.9
2017-Dec-14 12:53N 50°52' E 001°17'411.5
2017-Dec-14 12:30N 50°56' E 001°20'510.9
2017-Dec-14 12:00N 51°00' E 001°25'5 9.6
2017-Dec-14 11:30N 51°05' E 001°25'2 3.5
2017-Dec-14 11:00N 51°07' E 001°26'4 8.2
2017-Dec-14 10:30N 51°08' E 001°32'4 7.6
2017-Dec-14 10:00N 51°09' E 001°37'5 9.4
2017-Dec-14 09:30N 51°12' E 001°44'510.0
2017-Dec-14 09:00N 51°16' E 001°48'510.6
2017-Dec-14 08:30N 51°20' E 001°53'611.1
2017-Dec-14 08:00N 51°25' E 001°58'5 9.8
2017-Dec-14 07:30N 51°24' E 002°06'611.0
2017-Dec-14 07:00N 51°21' E 002°14'711.0
2017-Dec-14 06:24N 51°22' E 002°25'511.8
2017-Dec-14 05:58N 51°23' E 002°33'1111.4
2017-Dec-14 05:02N 51°22' E 002°50'210.6
2017-Dec-14 04:50N 51°22' E 002°53'310.0
2017-Dec-14 04:29N 51°23' E 002°59'5 9.2
2017-Dec-14 03:59N 51°24' E 003°06'510.9
2017-Dec-14 03:30N 51°25' E 003°14'611.0
2017-Dec-14 03:00N 51°25' E 003°23'610.4
2017-Dec-14 02:28N 51°26' E 003°32'3 6.3
2017-Dec-14 02:00N 51°26' E 003°37'3 7.0
2017-Dec-14 01:30N 51°26' E 003°42'611.9
2017-Dec-14 01:00N 51°21' E 003°48'612.0
2017-Dec-14 00:30N 51°24' E 003°57'3 6.7
2017-Dec-14 00:00N 51°25' E 004°02'5 9.3
2017-Dec-13 23:30N 51°23' E 004°09'3 6.2
2017-Dec-13 23:01N 51°22' E 004°14'5 9.1
2017-Dec-13 22:30N 51°18' E 004°18'2 4.0
2017-Dec-13 22:00N 51°17' E 004°20'0 0.0
2017-Dec-13 21:30N 51°17' E 004°20'  
Track history (hours):
 
Tides and Currents Weather Stations Pressure Air Temp Water Temp Dewpoint Dewpoint Depression Visibility Wind Speed Wind Dir Waves Ship Positions

Green Ray

Last reported at 2017-Dec-23 21:29 UTC. Time now 2018-Jan-20 23:10 UTC.
Position N 36°25' E 014°41'.
Warning: this ship's position is 28 days out of date.

Length 145 m; draft 8.9 m.

Type: Ship (hazmat cat A). MMSI: 636016193.

Date/timePositionNaut miles runAvg speedWind from/ knotsBaromVisibWave heightAir tempDewpointWater temp
2017-Dec-23 21:29N 36°25' E 014°41'713.7
2017-Dec-23 21:00N 36°26' E 014°33'713.5
2017-Dec-23 20:30N 36°28' E 014°25'713.5
2017-Dec-23 19:59N 36°30' E 014°17'713.5
2017-Dec-23 19:30N 36°32' E 014°09'1113.7
2017-Dec-23 18:43N 36°35' E 013°56'1113.5
2017-Dec-23 17:53N 36°38' E 013°43'  
2017-Dec-20 18:45N 36°00' W 005°14'314.7
2017-Dec-20 18:30N 35°60' W 005°18'714.4
2017-Dec-20 18:00N 35°58' W 005°27'23811.2
2017-Dec-19 20:46N 37°42' W 009°54'913.2
2017-Dec-19 20:05N 37°51' W 009°57'113.4
2017-Dec-19 20:00N 37°52' W 009°57'713.7
2017-Dec-19 19:30N 37°59' W 009°59'913.5
2017-Dec-19 18:52N 38°07' W 010°02'513.4
2017-Dec-19 18:30N 38°12' W 010°03'913.3
2017-Dec-19 17:48N 38°21' W 010°06'413.3
2017-Dec-19 17:30N 38°25' W 010°07'713.3
2017-Dec-19 17:00N 38°31' W 010°09'713.5
2017-Dec-19 16:30N 38°38' W 010°11'713.5
2017-Dec-19 16:00N 38°45' W 010°12'1113.1
2017-Dec-19 15:10N 38°55' W 010°12'213.1
2017-Dec-19 15:00N 38°58' W 010°12'713.2
2017-Dec-19 14:30N 39°04' W 010°12'713.0
2017-Dec-19 13:58N 39°11' W 010°12'613.4
2017-Dec-19 13:29N 39°18' W 010°12'  
2017-Dec-17 06:25N 49°44' W 003°36'711.7
2017-Dec-17 05:47N 49°48' W 003°27'311.6
2017-Dec-17 05:30N 49°50' W 003°22'711.7
2017-Dec-17 04:55N 49°53' W 003°12'512.0
2017-Dec-17 04:30N 49°55' W 003°06'612.4
2017-Dec-17 04:00N 49°57' W 002°57'612.8
2017-Dec-17 03:30N 49°59' W 002°47'713.4
2017-Dec-17 03:00N 50°01' W 002°37'7012.5
2017-Dec-16 21:22N 49°53' W 000°49'411.6
2017-Dec-16 21:00N 49°50' W 000°44'611.4
2017-Dec-16 20:30N 49°46' W 000°38'611.3
2017-Dec-16 20:00N 49°42' W 000°32'611.4
2017-Dec-16 19:30N 49°38' W 000°26'611.3
2017-Dec-16 19:00N 49°34' W 000°19'611.4
2017-Dec-16 18:30N 49°32' W 000°11'611.6
2017-Dec-16 18:00N 49°30' W 000°03'611.1
2017-Dec-16 17:30N 49°29' E 000°06'3 6.3
2017-Dec-16 17:00N 49°29' E 000°10'0 0.0
2017-Dec-16 16:30N 49°29' E 000°10'1 1.4
2017-Dec-16 16:01N 49°29' E 000°11'2 3.3
2017-Dec-16 15:25N 49°28' E 000°14'0 0.0
2017-Dec-16 14:55N 49°28' E 000°14'0 0.0
2017-Dec-16 14:25N 49°28' E 000°14'0 0.0
2017-Dec-16 13:55N 49°28' E 000°14'0 0.0
2017-Dec-16 13:25N 49°28' E 000°14'0 0.0
2017-Dec-16 12:55N 49°28' E 000°14'0 0.0
2017-Dec-16 12:25N 49°28' E 000°14'0 0.0
2017-Dec-16 11:55N 49°28' E 000°14'0 0.0
2017-Dec-16 11:25N 49°28' E 000°14'0 0.0
2017-Dec-16 10:55N 49°28' E 000°14'0 0.0
2017-Dec-16 10:25N 49°28' E 000°14'0 0.0
2017-Dec-16 09:55N 49°28' E 000°14'0 0.0
2017-Dec-16 09:25N 49°28' E 000°14'0 0.0
2017-Dec-16 08:55N 49°28' E 000°14'0 0.0
2017-Dec-16 08:25N 49°28' E 000°14'0 0.0
2017-Dec-16 07:55N 49°28' E 000°14'0 0.0
2017-Dec-16 07:25N 49°28' E 000°14'0 0.0
2017-Dec-16 06:55N 49°28' E 000°14'0 0.0
2017-Dec-16 06:25N 49°28' E 000°14'0 0.0
2017-Dec-16 05:55N 49°28' E 000°14'0 0.0
2017-Dec-16 05:25N 49°28' E 000°14'0 0.0
2017-Dec-16 04:55N 49°28' E 000°14'0 0.0
2017-Dec-16 04:25N 49°28' E 000°14'0 0.0
2017-Dec-16 03:55N 49°28' E 000°14'0 0.0
2017-Dec-16 03:25N 49°28' E 000°14'0 0.0
2017-Dec-16 02:55N 49°28' E 000°14'0 0.0
2017-Dec-16 02:25N 49°28' E 000°14'0 0.0
2017-Dec-16 01:55N 49°28' E 000°14'0 0.0
2017-Dec-16 01:25N 49°28' E 000°14'0 0.0
2017-Dec-16 00:55N 49°28' E 000°14'0 0.0
2017-Dec-16 00:25N 49°28' E 000°14'0 0.0
2017-Dec-15 23:55N 49°28' E 000°14'0 0.0
2017-Dec-15 23:25N 49°28' E 000°14'0 0.0
2017-Dec-15 22:55N 49°28' E 000°14'0 0.0
2017-Dec-15 22:25N 49°28' E 000°14'0 0.0
2017-Dec-15 21:55N 49°28' E 000°14'0 0.0
2017-Dec-15 21:25N 49°28' E 000°14'0 0.0
2017-Dec-15 20:55N 49°28' E 000°14'0 0.0
2017-Dec-15 20:25N 49°28' E 000°14'0 0.0
2017-Dec-15 19:55N 49°28' E 000°14'0 0.0
2017-Dec-15 19:25N 49°28' E 000°14'0 0.0
2017-Dec-15 18:55N 49°28' E 000°14'0 0.0
2017-Dec-15 18:25N 49°28' E 000°14'0 0.0
2017-Dec-15 17:55N 49°28' E 000°14'0 0.0
2017-Dec-15 17:25N 49°28' E 000°14'0 0.0
2017-Dec-15 16:55N 49°28' E 000°14'0 0.0
2017-Dec-15 16:25N 49°28' E 000°14'0 0.0
2017-Dec-15 15:55N 49°28' E 000°14'0 0.0
2017-Dec-15 15:25N 49°28' E 000°14'0 0.0
2017-Dec-15 14:55N 49°28' E 000°14'0 0.0
2017-Dec-15 14:25N 49°28' E 000°14'0 0.0
2017-Dec-15 13:55N 49°28' E 000°14'0 0.0
2017-Dec-15 13:25N 49°28' E 000°14'0 0.0
2017-Dec-15 12:55N 49°28' E 000°14'0 0.0
2017-Dec-15 12:25N 49°28' E 000°14'0 0.0
2017-Dec-15 11:55N 49°28' E 000°14'0 0.0
2017-Dec-15 11:25N 49°28' E 000°14'0 0.0
2017-Dec-15 10:55N 49°28' E 000°14'0 0.0
2017-Dec-15 10:25N 49°28' E 000°14'0 0.0
2017-Dec-15 09:55N 49°28' E 000°14'0 0.0
2017-Dec-15 09:25N 49°28' E 000°14'0 0.0
2017-Dec-15 08:55N 49°28' E 000°14'0 0.0
2017-Dec-15 08:25N 49°28' E 000°14'0 0.0
2017-Dec-15 08:01N 49°28' E 000°14'0 0.0
2017-Dec-15 07:31N 49°28' E 000°14'0 0.0
2017-Dec-15 07:01N 49°28' E 000°14'0 0.0
2017-Dec-15 06:30N 49°28' E 000°14'0 0.0
2017-Dec-15 06:00N 49°28' E 000°14'0 0.0
2017-Dec-15 05:30N 49°28' E 000°14'0 0.0
2017-Dec-15 05:00N 49°28' E 000°14'0 0.0
2017-Dec-15 04:30N 49°28' E 000°14'0 0.0
2017-Dec-15 04:00N 49°28' E 000°14'3 2.0
2017-Dec-15 02:30N 49°28' E 000°10'14 9.4
2017-Dec-15 01:00N 49°32' W 000°11'5 9.3
2017-Dec-15 00:30N 49°33' W 000°18'52 8.7
2017-Dec-14 18:30N 50°26' W 000°13'5 9.9
2017-Dec-14 18:00N 50°27' W 000°05'5 9.8
2017-Dec-14 17:30N 50°28' E 000°02'510.4
2017-Dec-14 16:59N 50°29' E 000°10'510.7
2017-Dec-14 16:30N 50°31' E 000°18'611.3
2017-Dec-14 16:00N 50°32' E 000°27'1211.6
2017-Dec-14 15:00N 50°37' E 000°43'612.4
2017-Dec-14 14:30N 50°41' E 000°51'612.6
2017-Dec-14 14:00N 50°44' E 000°59'1311.9
2017-Dec-14 12:53N 50°52' E 001°17'411.5
2017-Dec-14 12:30N 50°56' E 001°20'510.9
2017-Dec-14 12:00N 51°00' E 001°25'5 9.6
2017-Dec-14 11:30N 51°05' E 001°25'2 3.5
2017-Dec-14 11:00N 51°07' E 001°26'4 8.2
2017-Dec-14 10:30N 51°08' E 001°32'4 7.6
2017-Dec-14 10:00N 51°09' E 001°37'5 9.4
2017-Dec-14 09:30N 51°12' E 001°44'510.0
2017-Dec-14 09:00N 51°16' E 001°48'510.6
2017-Dec-14 08:30N 51°20' E 001°53'611.1
2017-Dec-14 08:00N 51°25' E 001°58'5 9.8
2017-Dec-14 07:30N 51°24' E 002°06'611.0
2017-Dec-14 07:00N 51°21' E 002°14'711.0
2017-Dec-14 06:24N 51°22' E 002°25'511.8
2017-Dec-14 05:58N 51°23' E 002°33'1111.4
2017-Dec-14 05:02N 51°22' E 002°50'210.6
2017-Dec-14 04:50N 51°22' E 002°53'310.0
2017-Dec-14 04:29N 51°23' E 002°59'5 9.2
2017-Dec-14 03:59N 51°24' E 003°06'510.9
2017-Dec-14 03:30N 51°25' E 003°14'611.0
2017-Dec-14 03:00N 51°25' E 003°23'610.4
2017-Dec-14 02:28N 51°26' E 003°32'3 6.3
2017-Dec-14 02:00N 51°26' E 003°37'3 7.0
2017-Dec-14 01:30N 51°26' E 003°42'611.9
2017-Dec-14 01:00N 51°21' E 003°48'612.0
2017-Dec-14 00:30N 51°24' E 003°57'3 6.7
2017-Dec-14 00:00N 51°25' E 004°02'5 9.3
2017-Dec-13 23:30N 51°23' E 004°09'3 6.2
2017-Dec-13 23:01N 51°22' E 004°14'5 9.1
2017-Dec-13 22:30N 51°18' E 004°18'2 4.0
2017-Dec-13 22:00N 51°17' E 004°20'0 0.0
2017-Dec-13 21:30N 51°17' E 004°20'  

Dump ship's entire track history